sensor_id;sensor_type;location;lat;lon;timestamp;temperature;humidity
921;DHT22;447;51.332;6.778;2022-08-26T00:01:35;30.00;57.10
921;DHT22;447;51.332;6.778;2022-08-26T00:04:02;29.90;57.10
921;DHT22;447;51.332;6.778;2022-08-26T00:06:30;29.90;57.10
921;DHT22;447;51.332;6.778;2022-08-26T00:08:58;29.90;57.10
921;DHT22;447;51.332;6.778;2022-08-26T00:11:29;29.90;57.10
921;DHT22;447;51.332;6.778;2022-08-26T00:14:01;29.90;57.20
921;DHT22;447;51.332;6.778;2022-08-26T00:16:29;29.80;57.10
921;DHT22;447;51.332;6.778;2022-08-26T00:18:58;29.80;57.10
921;DHT22;447;51.332;6.778;2022-08-26T00:21:26;29.80;57.20
921;DHT22;447;51.332;6.778;2022-08-26T00:23:55;29.80;57.20
921;DHT22;447;51.332;6.778;2022-08-26T00:26:23;29.80;57.20
921;DHT22;447;51.332;6.778;2022-08-26T00:28:50;29.80;57.20
921;DHT22;447;51.332;6.778;2022-08-26T00:31:16;29.70;57.20
921;DHT22;447;51.332;6.778;2022-08-26T00:33:44;29.70;57.20
921;DHT22;447;51.332;6.778;2022-08-26T00:36:12;29.70;57.20
921;DHT22;447;51.332;6.778;2022-08-26T00:38:41;29.70;57.20
921;DHT22;447;51.332;6.778;2022-08-26T00:41:07;29.60;57.10
921;DHT22;447;51.332;6.778;2022-08-26T00:43:36;29.70;57.20
921;DHT22;447;51.332;6.778;2022-08-26T00:46:16;29.60;57.10
921;DHT22;447;51.332;6.778;2022-08-26T00:48:47;29.60;57.10
921;DHT22;447;51.332;6.778;2022-08-26T00:51:22;29.60;57.10
921;DHT22;447;51.332;6.778;2022-08-26T00:54:03;29.60;57.10
921;DHT22;447;51.332;6.778;2022-08-26T00:59:11;29.50;57.10
921;DHT22;447;51.332;6.778;2022-08-26T01:01:42;29.50;57.30
921;DHT22;447;51.332;6.778;2022-08-26T01:04:16;29.50;57.10
921;DHT22;447;51.332;6.778;2022-08-26T01:06:43;29.50;57.10
921;DHT22;447;51.332;6.778;2022-08-26T01:09:12;29.50;57.10
921;DHT22;447;51.332;6.778;2022-08-26T01:11:43;29.40;57.10
921;DHT22;447;51.332;6.778;2022-08-26T01:14:12;29.40;57.10
921;DHT22;447;51.332;6.778;2022-08-26T01:16:41;29.40;57.20
921;DHT22;447;51.332;6.778;2022-08-26T01:19:49;29.40;57.20
921;DHT22;447;51.332;6.778;2022-08-26T01:22:30;29.40;57.20
921;DHT22;447;51.332;6.778;2022-08-26T01:25:02;29.40;57.30
921;DHT22;447;51.332;6.778;2022-08-26T01:27:33;29.30;57.30
921;DHT22;447;51.332;6.778;2022-08-26T01:30:04;29.30;57.30
921;DHT22;447;51.332;6.778;2022-08-26T01:32:36;29.30;57.40
921;DHT22;447;51.332;6.778;2022-08-26T01:35:03;29.30;57.40
921;DHT22;447;51.332;6.778;2022-08-26T01:37:39;29.30;57.50
921;DHT22;447;51.332;6.778;2022-08-26T01:40:11;29.30;57.60
921;DHT22;447;51.332;6.778;2022-08-26T01:42:40;29.30;57.60
921;DHT22;447;51.332;6.778;2022-08-26T01:45:18;29.20;57.60
921;DHT22;447;51.332;6.778;2022-08-26T01:47:46;29.20;57.70
921;DHT22;447;51.332;6.778;2022-08-26T01:50:24;29.20;57.70
921;DHT22;447;51.332;6.778;2022-08-26T01:52:51;29.20;57.80
921;DHT22;447;51.332;6.778;2022-08-26T01:55:19;29.20;57.90
921;DHT22;447;51.332;6.778;2022-08-26T01:57:51;29.20;58.00
921;DHT22;447;51.332;6.778;2022-08-26T02:00:23;29.20;58.10
921;DHT22;447;51.332;6.778;2022-08-26T02:02:55;29.20;58.20
921;DHT22;447;51.332;6.778;2022-08-26T02:05:57;29.10;58.20
921;DHT22;447;51.332;6.778;2022-08-26T02:08:42;29.10;58.30
921;DHT22;447;51.332;6.778;2022-08-26T02:11:09;29.10;58.40
921;DHT22;447;51.332;6.778;2022-08-26T02:14:04;29.10;58.40
921;DHT22;447;51.332;6.778;2022-08-26T02:16:37;29.10;58.60
921;DHT22;447;51.332;6.778;2022-08-26T02:19:21;29.10;58.70
921;DHT22;447;51.332;6.778;2022-08-26T02:21:48;29.10;58.80
921;DHT22;447;51.332;6.778;2022-08-26T02:24:23;29.00;58.80
921;DHT22;447;51.332;6.778;2022-08-26T02:26:56;29.00;58.80
921;DHT22;447;51.332;6.778;2022-08-26T02:29:24;29.00;59.00
921;DHT22;447;51.332;6.778;2022-08-26T02:31:53;29.00;59.10
921;DHT22;447;51.332;6.778;2022-08-26T02:34:28;29.00;59.10
921;DHT22;447;51.332;6.778;2022-08-26T02:36:59;29.00;59.20
921;DHT22;447;51.332;6.778;2022-08-26T02:39:29;29.00;59.30
921;DHT22;447;51.332;6.778;2022-08-26T02:42:00;28.90;59.30
921;DHT22;447;51.332;6.778;2022-08-26T02:44:27;28.90;59.40
921;DHT22;447;51.332;6.778;2022-08-26T02:46:54;28.90;59.40
921;DHT22;447;51.332;6.778;2022-08-26T02:49:25;28.90;59.50
921;DHT22;447;51.332;6.778;2022-08-26T02:51:55;28.90;59.60
921;DHT22;447;51.332;6.778;2022-08-26T02:54:21;28.90;59.60
921;DHT22;447;51.332;6.778;2022-08-26T02:56:47;28.90;59.70
921;DHT22;447;51.332;6.778;2022-08-26T02:59:16;28.90;59.70
921;DHT22;447;51.332;6.778;2022-08-26T03:01:45;28.80;59.70
921;DHT22;447;51.332;6.778;2022-08-26T03:04:17;28.80;60.60
921;DHT22;447;51.332;6.778;2022-08-26T03:06:48;28.80;59.80
921;DHT22;447;51.332;6.778;2022-08-26T03:09:19;28.80;59.90
921;DHT22;447;51.332;6.778;2022-08-26T03:11:45;28.80;59.90
921;DHT22;447;51.332;6.778;2022-08-26T03:14:32;28.70;59.90
921;DHT22;447;51.332;6.778;2022-08-26T03:17:03;28.80;60.20
921;DHT22;447;51.332;6.778;2022-08-26T03:19:31;28.70;60.40
921;DHT22;447;51.332;6.778;2022-08-26T03:21:59;28.70;60.50
921;DHT22;447;51.332;6.778;2022-08-26T03:24:27;28.70;60.60
921;DHT22;447;51.332;6.778;2022-08-26T03:26:58;28.70;60.70
921;DHT22;447;51.332;6.778;2022-08-26T03:29:29;28.70;60.70
921;DHT22;447;51.332;6.778;2022-08-26T03:32:13;28.70;60.80
921;DHT22;447;51.332;6.778;2022-08-26T03:34:41;28.70;60.80
921;DHT22;447;51.332;6.778;2022-08-26T03:37:07;28.70;60.90
921;DHT22;447;51.332;6.778;2022-08-26T03:39:33;28.60;60.70
921;DHT22;447;51.332;6.778;2022-08-26T03:41:59;28.60;60.80
921;DHT22;447;51.332;6.778;2022-08-26T03:44:25;28.60;60.90
921;DHT22;447;51.332;6.778;2022-08-26T03:46:52;28.60;61.00
921;DHT22;447;51.332;6.778;2022-08-26T03:49:21;28.60;61.20
921;DHT22;447;51.332;6.778;2022-08-26T03:51:47;28.60;61.20
921;DHT22;447;51.332;6.778;2022-08-26T03:54:13;28.60;61.30
921;DHT22;447;51.332;6.778;2022-08-26T03:56:40;28.60;61.30
921;DHT22;447;51.332;6.778;2022-08-26T03:59:08;28.50;61.40
921;DHT22;447;51.332;6.778;2022-08-26T04:01:37;28.60;61.50
921;DHT22;447;51.332;6.778;2022-08-26T04:04:06;28.50;61.50
921;DHT22;447;51.332;6.778;2022-08-26T04:06:37;28.50;61.60
921;DHT22;447;51.332;6.778;2022-08-26T04:09:07;28.50;62.00
921;DHT22;447;51.332;6.778;2022-08-26T04:11:34;28.50;62.10
921;DHT22;447;51.332;6.778;2022-08-26T04:14:04;28.40;62.00
921;DHT22;447;51.332;6.778;2022-08-26T04:16:31;28.50;62.20
921;DHT22;447;51.332;6.778;2022-08-26T04:18:58;28.40;62.00
921;DHT22;447;51.332;6.778;2022-08-26T04:21:25;28.40;62.20
921;DHT22;447;51.332;6.778;2022-08-26T04:23:54;28.40;62.40
921;DHT22;447;51.332;6.778;2022-08-26T04:26:23;28.40;62.40
921;DHT22;447;51.332;6.778;2022-08-26T04:28:53;28.40;62.50
921;DHT22;447;51.332;6.778;2022-08-26T04:31:20;28.40;62.50
921;DHT22;447;51.332;6.778;2022-08-26T04:33:49;28.40;62.50
921;DHT22;447;51.332;6.778;2022-08-26T04:36:16;28.40;62.50
921;DHT22;447;51.332;6.778;2022-08-26T04:38:45;28.30;62.60
921;DHT22;447;51.332;6.778;2022-08-26T04:41:13;28.30;62.60
921;DHT22;447;51.332;6.778;2022-08-26T04:43:40;28.30;62.60
921;DHT22;447;51.332;6.778;2022-08-26T04:46:09;28.30;62.70
921;DHT22;447;51.332;6.778;2022-08-26T04:48:38;28.30;62.70
921;DHT22;447;51.332;6.778;2022-08-26T04:51:05;28.30;62.90
921;DHT22;447;51.332;6.778;2022-08-26T04:53:33;28.30;63.00
921;DHT22;447;51.332;6.778;2022-08-26T04:56:00;28.30;63.00
921;DHT22;447;51.332;6.778;2022-08-26T04:58:54;28.30;63.00
921;DHT22;447;51.332;6.778;2022-08-26T05:01:21;28.30;63.00
921;DHT22;447;51.332;6.778;2022-08-26T05:03:48;28.20;63.10
921;DHT22;447;51.332;6.778;2022-08-26T05:06:17;28.20;63.20
921;DHT22;447;51.332;6.778;2022-08-26T05:08:52;28.20;63.20
921;DHT22;447;51.332;6.778;2022-08-26T05:11:24;28.20;63.30
921;DHT22;447;51.332;6.778;2022-08-26T05:13:52;28.20;63.80
921;DHT22;447;51.332;6.778;2022-08-26T05:16:21;28.20;67.70
921;DHT22;447;51.332;6.778;2022-08-26T05:18:47;28.00;68.20
921;DHT22;447;51.332;6.778;2022-08-26T05:21:24;27.90;67.90
921;DHT22;447;51.332;6.778;2022-08-26T05:23:54;27.90;67.60
921;DHT22;447;51.332;6.778;2022-08-26T05:26:26;27.90;67.50
921;DHT22;447;51.332;6.778;2022-08-26T05:28:56;27.90;67.30
921;DHT22;447;51.332;6.778;2022-08-26T05:31:29;27.90;67.10
921;DHT22;447;51.332;6.778;2022-08-26T05:33:57;27.90;66.70
921;DHT22;447;51.332;6.778;2022-08-26T05:36:32;27.90;66.50
921;DHT22;447;51.332;6.778;2022-08-26T05:39:04;27.90;66.30
921;DHT22;447;51.332;6.778;2022-08-26T05:41:37;27.90;66.10
921;DHT22;447;51.332;6.778;2022-08-26T05:44:10;27.90;66.20
921;DHT22;447;51.332;6.778;2022-08-26T05:46:38;27.90;66.10
921;DHT22;447;51.332;6.778;2022-08-26T05:49:07;27.90;66.00
921;DHT22;447;51.332;6.778;2022-08-26T05:51:35;27.90;66.00
921;DHT22;447;51.332;6.778;2022-08-26T05:54:06;27.90;66.00
921;DHT22;447;51.332;6.778;2022-08-26T05:56:35;27.90;66.10
921;DHT22;447;51.332;6.778;2022-08-26T05:59:03;27.80;65.90
921;DHT22;447;51.332;6.778;2022-08-26T06:01:32;27.90;65.90
921;DHT22;447;51.332;6.778;2022-08-26T06:04:01;27.90;65.90
921;DHT22;447;51.332;6.778;2022-08-26T06:06:33;27.90;65.90
921;DHT22;447;51.332;6.778;2022-08-26T06:09:02;27.90;66.00
921;DHT22;447;51.332;6.778;2022-08-26T06:11:29;27.80;65.80
921;DHT22;447;51.332;6.778;2022-08-26T06:14:01;27.90;66.00
921;DHT22;447;51.332;6.778;2022-08-26T06:16:32;27.80;65.80
921;DHT22;447;51.332;6.778;2022-08-26T06:19:01;27.80;65.80
921;DHT22;447;51.332;6.778;2022-08-26T06:21:32;27.80;65.70
921;DHT22;447;51.332;6.778;2022-08-26T06:24:04;27.80;65.80
921;DHT22;447;51.332;6.778;2022-08-26T06:26:55;27.80;65.90
921;DHT22;447;51.332;6.778;2022-08-26T06:29:27;27.80;65.80
921;DHT22;447;51.332;6.778;2022-08-26T06:31:54;27.80;65.90
921;DHT22;447;51.332;6.778;2022-08-26T06:34:26;27.80;65.90
921;DHT22;447;51.332;6.778;2022-08-26T06:37:01;27.80;66.10
921;DHT22;447;51.332;6.778;2022-08-26T06:39:28;27.80;66.10
921;DHT22;447;51.332;6.778;2022-08-26T06:41:54;27.80;66.00
921;DHT22;447;51.332;6.778;2022-08-26T06:44:23;27.80;66.00
921;DHT22;447;51.332;6.778;2022-08-26T06:47:10;27.80;66.10
921;DHT22;447;51.332;6.778;2022-08-26T06:49:38;27.80;66.00
921;DHT22;447;51.332;6.778;2022-08-26T06:52:04;27.80;66.00
921;DHT22;447;51.332;6.778;2022-08-26T06:54:30;27.80;66.00
921;DHT22;447;51.332;6.778;2022-08-26T06:56:57;27.80;66.00
921;DHT22;447;51.332;6.778;2022-08-26T06:59:26;27.70;65.90
921;DHT22;447;51.332;6.778;2022-08-26T07:01:52;27.70;66.00
921;DHT22;447;51.332;6.778;2022-08-26T07:04:21;27.70;65.90
921;DHT22;447;51.332;6.778;2022-08-26T07:06:50;27.70;66.00
921;DHT22;447;51.332;6.778;2022-08-26T07:09:17;27.70;66.00
921;DHT22;447;51.332;6.778;2022-08-26T07:11:52;27.70;66.00
921;DHT22;447;51.332;6.778;2022-08-26T07:14:24;27.70;66.40
921;DHT22;447;51.332;6.778;2022-08-26T07:16:53;27.70;66.40
921;DHT22;447;51.332;6.778;2022-08-26T07:19:26;27.70;66.40
921;DHT22;447;51.332;6.778;2022-08-26T07:21:54;27.60;66.20
921;DHT22;447;51.332;6.778;2022-08-26T07:24:23;27.70;66.20
921;DHT22;447;51.332;6.778;2022-08-26T07:26:49;27.70;66.20
921;DHT22;447;51.332;6.778;2022-08-26T07:29:15;27.70;66.20
921;DHT22;447;51.332;6.778;2022-08-26T07:31:41;27.60;66.20
921;DHT22;447;51.332;6.778;2022-08-26T07:34:07;27.60;66.20
921;DHT22;447;51.332;6.778;2022-08-26T07:36:37;27.60;66.30
921;DHT22;447;51.332;6.778;2022-08-26T07:39:03;27.60;66.40
921;DHT22;447;51.332;6.778;2022-08-26T07:41:31;27.60;66.40
921;DHT22;447;51.332;6.778;2022-08-26T07:44:01;27.60;66.50
921;DHT22;447;51.332;6.778;2022-08-26T07:46:30;27.60;66.60
921;DHT22;447;51.332;6.778;2022-08-26T07:48:59;27.60;66.50
921;DHT22;447;51.332;6.778;2022-08-26T07:51:25;27.60;66.50
921;DHT22;447;51.332;6.778;2022-08-26T07:53:53;27.60;66.50
921;DHT22;447;51.332;6.778;2022-08-26T07:56:21;27.60;66.50
921;DHT22;447;51.332;6.778;2022-08-26T07:58:52;27.50;66.40
921;DHT22;447;51.332;6.778;2022-08-26T08:01:22;27.60;66.50
921;DHT22;447;51.332;6.778;2022-08-26T08:03:52;27.50;66.50
921;DHT22;447;51.332;6.778;2022-08-26T08:06:24;27.50;66.60
921;DHT22;447;51.332;6.778;2022-08-26T08:08:54;27.50;66.70
921;DHT22;447;51.332;6.778;2022-08-26T08:11:23;27.50;66.70
921;DHT22;447;51.332;6.778;2022-08-26T08:14:12;27.50;66.70
921;DHT22;447;51.332;6.778;2022-08-26T08:16:38;27.50;66.60
921;DHT22;447;51.332;6.778;2022-08-26T08:19:06;27.50;66.60
921;DHT22;447;51.332;6.778;2022-08-26T08:21:35;27.50;66.60
921;DHT22;447;51.332;6.778;2022-08-26T08:24:01;27.50;66.80
921;DHT22;447;51.332;6.778;2022-08-26T08:26:27;27.40;66.70
921;DHT22;447;51.332;6.778;2022-08-26T08:28:55;27.40;66.70
921;DHT22;447;51.332;6.778;2022-08-26T08:31:29;27.40;66.70
921;DHT22;447;51.332;6.778;2022-08-26T08:33:58;27.50;67.10
921;DHT22;447;51.332;6.778;2022-08-26T08:36:24;27.50;67.00
921;DHT22;447;51.332;6.778;2022-08-26T08:38:52;27.50;66.90
921;DHT22;447;51.332;6.778;2022-08-26T08:44:00;27.40;66.70
921;DHT22;447;51.332;6.778;2022-08-26T08:46:29;27.40;66.70
921;DHT22;447;51.332;6.778;2022-08-26T08:48:58;27.40;66.80
921;DHT22;447;51.332;6.778;2022-08-26T08:54:18;27.40;66.70
921;DHT22;447;51.332;6.778;2022-08-26T08:56:52;27.40;66.70
921;DHT22;447;51.332;6.778;2022-08-26T08:59:25;27.40;66.70
921;DHT22;447;51.332;6.778;2022-08-26T09:06:51;27.40;66.80
921;DHT22;447;51.332;6.778;2022-08-26T09:09:28;27.40;66.90
921;DHT22;447;51.332;6.778;2022-08-26T09:11:57;27.40;66.80
921;DHT22;447;51.332;6.778;2022-08-26T09:14:26;27.40;66.90
921;DHT22;447;51.332;6.778;2022-08-26T09:19:41;27.40;67.20
921;DHT22;447;51.332;6.778;2022-08-26T09:22:28;27.30;67.00
921;DHT22;447;51.332;6.778;2022-08-26T09:24:54;27.30;67.10
921;DHT22;447;51.332;6.778;2022-08-26T09:27:44;27.30;68.00
921;DHT22;447;51.332;6.778;2022-08-26T09:30:29;27.30;67.00
921;DHT22;447;51.332;6.778;2022-08-26T09:33:09;27.30;67.00
921;DHT22;447;51.332;6.778;2022-08-26T09:35:38;27.30;67.00
921;DHT22;447;51.332;6.778;2022-08-26T09:38:24;27.30;67.10
921;DHT22;447;51.332;6.778;2022-08-26T09:40:59;27.30;67.10
921;DHT22;447;51.332;6.778;2022-08-26T09:43:26;27.30;67.20
921;DHT22;447;51.332;6.778;2022-08-26T09:46:22;27.30;67.20
921;DHT22;447;51.332;6.778;2022-08-26T09:48:52;27.30;67.20
921;DHT22;447;51.332;6.778;2022-08-26T09:53:54;27.30;67.20
921;DHT22;447;51.332;6.778;2022-08-26T09:58:51;27.30;67.40
921;DHT22;447;51.332;6.778;2022-08-26T10:01:38;27.30;67.30
921;DHT22;447;51.332;6.778;2022-08-26T10:09:26;27.30;67.30
921;DHT22;447;51.332;6.778;2022-08-26T10:12:01;27.30;67.30
921;DHT22;447;51.332;6.778;2022-08-26T10:14:50;27.30;67.30
921;DHT22;447;51.332;6.778;2022-08-26T10:17:39;27.30;67.40
921;DHT22;447;51.332;6.778;2022-08-26T10:20:15;27.30;67.50
921;DHT22;447;51.332;6.778;2022-08-26T10:25:17;27.30;67.50
921;DHT22;447;51.332;6.778;2022-08-26T10:30:36;27.30;67.60
921;DHT22;447;51.332;6.778;2022-08-26T10:33:11;27.30;67.70
921;DHT22;447;51.332;6.778;2022-08-26T10:35:48;27.20;67.60
921;DHT22;447;51.332;6.778;2022-08-26T10:38:22;27.20;67.60
921;DHT22;447;51.332;6.778;2022-08-26T10:43:32;27.20;67.60
921;DHT22;447;51.332;6.778;2022-08-26T10:46:04;27.20;67.70
921;DHT22;447;51.332;6.778;2022-08-26T10:51:24;27.30;67.60
921;DHT22;447;51.332;6.778;2022-08-26T10:54:00;27.20;67.60
921;DHT22;447;51.332;6.778;2022-08-26T11:07:49;27.20;67.70
921;DHT22;447;51.332;6.778;2022-08-26T11:12:54;27.20;67.70
921;DHT22;447;51.332;6.778;2022-08-26T11:22:50;27.30;67.30
921;DHT22;447;51.332;6.778;2022-08-26T11:25:19;27.20;67.10
921;DHT22;447;51.332;6.778;2022-08-26T11:40:26;27.30;67.30
921;DHT22;447;51.332;6.778;2022-08-26T11:43:05;27.30;67.30
921;DHT22;447;51.332;6.778;2022-08-26T11:45:40;27.30;67.20
921;DHT22;447;51.332;6.778;2022-08-26T11:53:45;27.30;67.20
921;DHT22;447;51.332;6.778;2022-08-26T11:56:28;27.30;67.10
921;DHT22;447;51.332;6.778;2022-08-26T11:58:59;27.30;66.90
921;DHT22;447;51.332;6.778;2022-08-26T12:01:29;27.30;66.90
921;DHT22;447;51.332;6.778;2022-08-26T12:03:57;27.30;66.90
921;DHT22;447;51.332;6.778;2022-08-26T12:06:34;27.30;66.90
921;DHT22;447;51.332;6.778;2022-08-26T12:09:06;27.30;66.90
921;DHT22;447;51.332;6.778;2022-08-26T12:11:36;27.30;66.90
921;DHT22;447;51.332;6.778;2022-08-26T12:14:15;27.30;66.80
921;DHT22;447;51.332;6.778;2022-08-26T12:16:42;27.30;66.80
921;DHT22;447;51.332;6.778;2022-08-26T12:22:25;27.30;66.90
921;DHT22;447;51.332;6.778;2022-08-26T12:24:57;27.30;66.80
921;DHT22;447;51.332;6.778;2022-08-26T12:27:40;27.30;66.80
921;DHT22;447;51.332;6.778;2022-08-26T12:30:13;27.30;66.70
921;DHT22;447;51.332;6.778;2022-08-26T12:32:42;27.30;66.80
921;DHT22;447;51.332;6.778;2022-08-26T12:35:14;27.30;66.80
921;DHT22;447;51.332;6.778;2022-08-26T12:37:45;27.30;66.90
921;DHT22;447;51.332;6.778;2022-08-26T12:42:52;27.30;66.60
921;DHT22;447;51.332;6.778;2022-08-26T12:45:31;27.30;66.60
921;DHT22;447;51.332;6.778;2022-08-26T12:48:01;27.30;66.60
921;DHT22;447;51.332;6.778;2022-08-26T12:50:34;27.30;66.60
921;DHT22;447;51.332;6.778;2022-08-26T13:11:15;27.30;66.50
921;DHT22;447;51.332;6.778;2022-08-26T13:14:03;27.30;66.70
921;DHT22;447;51.332;6.778;2022-08-26T13:16:30;27.30;66.60
921;DHT22;447;51.332;6.778;2022-08-26T13:18:59;27.30;66.50
921;DHT22;447;51.332;6.778;2022-08-26T13:21:31;27.30;66.50
921;DHT22;447;51.332;6.778;2022-08-26T13:24:04;27.30;66.40
921;DHT22;447;51.332;6.778;2022-08-26T13:26:34;27.30;66.30
921;DHT22;447;51.332;6.778;2022-08-26T13:29:00;27.30;66.40
921;DHT22;447;51.332;6.778;2022-08-26T13:31:28;27.30;66.40
921;DHT22;447;51.332;6.778;2022-08-26T13:33:56;27.30;66.40
921;DHT22;447;51.332;6.778;2022-08-26T13:36:22;27.30;66.40
921;DHT22;447;51.332;6.778;2022-08-26T13:38:48;27.30;66.40
921;DHT22;447;51.332;6.778;2022-08-26T13:41:18;27.30;66.30
921;DHT22;447;51.332;6.778;2022-08-26T13:43:45;27.30;66.40
921;DHT22;447;51.332;6.778;2022-08-26T13:46:13;27.30;66.40
921;DHT22;447;51.332;6.778;2022-08-26T13:48:39;27.30;66.40
921;DHT22;447;51.332;6.778;2022-08-26T13:51:06;27.30;66.30
921;DHT22;447;51.332;6.778;2022-08-26T13:53:31;27.30;66.30
921;DHT22;447;51.332;6.778;2022-08-26T13:55:59;27.30;66.40
921;DHT22;447;51.332;6.778;2022-08-26T13:58:26;27.30;66.40
921;DHT22;447;51.332;6.778;2022-08-26T14:00:56;27.30;66.40
921;DHT22;447;51.332;6.778;2022-08-26T14:03:24;27.30;66.40
921;DHT22;447;51.332;6.778;2022-08-26T14:05:51;27.30;66.50
921;DHT22;447;51.332;6.778;2022-08-26T14:08:18;27.30;66.50
921;DHT22;447;51.332;6.778;2022-08-26T14:10:44;27.30;66.50
921;DHT22;447;51.332;6.778;2022-08-26T14:13:14;27.30;66.50
921;DHT22;447;51.332;6.778;2022-08-26T14:15:43;27.30;66.70
921;DHT22;447;51.332;6.778;2022-08-26T14:18:12;27.30;66.90
921;DHT22;447;51.332;6.778;2022-08-26T14:21:13;27.30;67.00
921;DHT22;447;51.332;6.778;2022-08-26T14:23:39;27.30;67.20
921;DHT22;447;51.332;6.778;2022-08-26T14:26:08;27.30;67.30
921;DHT22;447;51.332;6.778;2022-08-26T14:28:36;27.20;67.40
921;DHT22;447;51.332;6.778;2022-08-26T14:31:03;27.30;67.60
921;DHT22;447;51.332;6.778;2022-08-26T14:33:32;27.30;67.60
921;DHT22;447;51.332;6.778;2022-08-26T14:35:59;27.20;67.60
921;DHT22;447;51.332;6.778;2022-08-26T14:38:44;27.20;67.80
921;DHT22;447;51.332;6.778;2022-08-26T14:41:15;27.20;68.00
921;DHT22;447;51.332;6.778;2022-08-26T14:43:49;27.20;68.00
921;DHT22;447;51.332;6.778;2022-08-26T14:46:16;27.20;68.00
921;DHT22;447;51.332;6.778;2022-08-26T14:48:45;27.20;68.00
921;DHT22;447;51.332;6.778;2022-08-26T14:51:11;27.30;68.20
921;DHT22;447;51.332;6.778;2022-08-26T14:53:39;27.20;68.10
921;DHT22;447;51.332;6.778;2022-08-26T14:56:29;27.20;67.90
921;DHT22;447;51.332;6.778;2022-08-26T14:58:56;27.20;68.10
921;DHT22;447;51.332;6.778;2022-08-26T15:01:22;27.20;68.80
921;DHT22;447;51.332;6.778;2022-08-26T15:03:51;27.20;68.10
921;DHT22;447;51.332;6.778;2022-08-26T15:06:18;27.20;68.20
921;DHT22;447;51.332;6.778;2022-08-26T15:08:44;27.20;68.20
921;DHT22;447;51.332;6.778;2022-08-26T15:11:16;27.20;68.20
921;DHT22;447;51.332;6.778;2022-08-26T15:13:45;27.20;68.20
921;DHT22;447;51.332;6.778;2022-08-26T15:16:14;27.20;68.20
921;DHT22;447;51.332;6.778;2022-08-26T15:18:40;27.20;68.20
921;DHT22;447;51.332;6.778;2022-08-26T15:21:06;27.20;68.20
921;DHT22;447;51.332;6.778;2022-08-26T15:23:35;27.20;68.00
921;DHT22;447;51.332;6.778;2022-08-26T15:26:03;27.20;68.10
921;DHT22;447;51.332;6.778;2022-08-26T15:28:31;27.20;68.00
921;DHT22;447;51.332;6.778;2022-08-26T15:31:04;27.20;68.10
921;DHT22;447;51.332;6.778;2022-08-26T15:33:32;27.20;68.20
921;DHT22;447;51.332;6.778;2022-08-26T15:35:59;27.20;68.30
921;DHT22;447;51.332;6.778;2022-08-26T15:38:34;27.20;68.30
921;DHT22;447;51.332;6.778;2022-08-26T15:41:06;27.10;68.00
921;DHT22;447;51.332;6.778;2022-08-26T15:43:34;27.20;68.20
921;DHT22;447;51.332;6.778;2022-08-26T15:46:09;27.20;68.20
921;DHT22;447;51.332;6.778;2022-08-26T15:48:37;27.20;68.20
921;DHT22;447;51.332;6.778;2022-08-26T15:51:03;27.10;68.00
921;DHT22;447;51.332;6.778;2022-08-26T15:53:31;27.10;68.00
921;DHT22;447;51.332;6.778;2022-08-26T15:55:58;27.10;68.00
921;DHT22;447;51.332;6.778;2022-08-26T15:58:29;27.10;68.00
921;DHT22;447;51.332;6.778;2022-08-26T16:00:55;27.10;67.90
921;DHT22;447;51.332;6.778;2022-08-26T16:03:22;27.10;67.90
921;DHT22;447;51.332;6.778;2022-08-26T16:05:48;27.10;67.70
921;DHT22;447;51.332;6.778;2022-08-26T16:08:15;27.10;67.70
921;DHT22;447;51.332;6.778;2022-08-26T16:10:46;27.10;67.80
921;DHT22;447;51.332;6.778;2022-08-26T16:13:15;27.10;67.80
921;DHT22;447;51.332;6.778;2022-08-26T16:15:46;27.10;67.70
921;DHT22;447;51.332;6.778;2022-08-26T16:18:15;27.10;67.70
921;DHT22;447;51.332;6.778;2022-08-26T16:20:50;27.10;67.60
921;DHT22;447;51.332;6.778;2022-08-26T16:23:17;27.10;67.60
921;DHT22;447;51.332;6.778;2022-08-26T16:25:43;27.10;67.60
921;DHT22;447;51.332;6.778;2022-08-26T16:28:10;27.10;67.60
921;DHT22;447;51.332;6.778;2022-08-26T16:30:41;27.10;67.60
921;DHT22;447;51.332;6.778;2022-08-26T16:33:07;27.10;67.50
921;DHT22;447;51.332;6.778;2022-08-26T16:35:36;27.10;67.50
921;DHT22;447;51.332;6.778;2022-08-26T16:38:08;27.10;67.50
921;DHT22;447;51.332;6.778;2022-08-26T16:40:37;27.10;67.60
921;DHT22;447;51.332;6.778;2022-08-26T16:43:04;27.10;67.50
921;DHT22;447;51.332;6.778;2022-08-26T16:45:30;27.10;67.40
921;DHT22;447;51.332;6.778;2022-08-26T16:48:05;27.10;67.40
921;DHT22;447;51.332;6.778;2022-08-26T16:50:34;27.00;67.40
921;DHT22;447;51.332;6.778;2022-08-26T16:53:02;27.10;68.30
921;DHT22;447;51.332;6.778;2022-08-26T16:55:36;27.10;67.60
921;DHT22;447;51.332;6.778;2022-08-26T16:58:05;27.10;67.60
921;DHT22;447;51.332;6.778;2022-08-26T17:00:33;27.00;67.50
921;DHT22;447;51.332;6.778;2022-08-26T17:03:02;27.00;67.40
921;DHT22;447;51.332;6.778;2022-08-26T17:05:33;27.00;67.40
921;DHT22;447;51.332;6.778;2022-08-26T17:08:02;27.00;67.40
921;DHT22;447;51.332;6.778;2022-08-26T17:10:31;27.00;67.30
921;DHT22;447;51.332;6.778;2022-08-26T17:13:06;27.00;67.30
921;DHT22;447;51.332;6.778;2022-08-26T17:15:36;27.00;67.40
921;DHT22;447;51.332;6.778;2022-08-26T17:18:02;27.00;68.20
921;DHT22;447;51.332;6.778;2022-08-26T17:20:31;27.00;67.30
921;DHT22;447;51.332;6.778;2022-08-26T17:23:00;27.00;67.30
921;DHT22;447;51.332;6.778;2022-08-26T17:25:31;27.00;67.50
921;DHT22;447;51.332;6.778;2022-08-26T17:27:58;27.00;67.60
921;DHT22;447;51.332;6.778;2022-08-26T17:30:26;27.00;67.60
921;DHT22;447;51.332;6.778;2022-08-26T17:32:53;27.00;67.60
921;DHT22;447;51.332;6.778;2022-08-26T17:35:20;27.00;67.60
921;DHT22;447;51.332;6.778;2022-08-26T17:37:49;27.00;67.60
921;DHT22;447;51.332;6.778;2022-08-26T17:40:20;27.00;67.60
921;DHT22;447;51.332;6.778;2022-08-26T17:42:47;26.90;67.50
921;DHT22;447;51.332;6.778;2022-08-26T17:45:18;26.90;67.40
921;DHT22;447;51.332;6.778;2022-08-26T17:47:47;26.90;67.40
921;DHT22;447;51.332;6.778;2022-08-26T17:50:17;27.00;67.60
921;DHT22;447;51.332;6.778;2022-08-26T17:52:48;26.90;67.40
921;DHT22;447;51.332;6.778;2022-08-26T17:55:40;26.90;67.60
921;DHT22;447;51.332;6.778;2022-08-26T17:58:36;26.90;67.70
921;DHT22;447;51.332;6.778;2022-08-26T18:01:05;26.90;67.60
921;DHT22;447;51.332;6.778;2022-08-26T18:03:31;26.90;67.60
921;DHT22;447;51.332;6.778;2022-08-26T18:06:01;26.90;67.70
921;DHT22;447;51.332;6.778;2022-08-26T18:08:32;26.90;67.70
921;DHT22;447;51.332;6.778;2022-08-26T18:10:58;26.90;67.70
921;DHT22;447;51.332;6.778;2022-08-26T18:13:24;26.90;67.80
921;DHT22;447;51.332;6.778;2022-08-26T18:15:50;26.80;67.70
921;DHT22;447;51.332;6.778;2022-08-26T18:18:20;26.90;67.70
921;DHT22;447;51.332;6.778;2022-08-26T18:20:53;26.90;67.70
921;DHT22;447;51.332;6.778;2022-08-26T18:23:22;26.80;67.60
921;DHT22;447;51.332;6.778;2022-08-26T18:25:51;26.80;67.60
921;DHT22;447;51.332;6.778;2022-08-26T18:28:17;26.80;67.50
921;DHT22;447;51.332;6.778;2022-08-26T18:30:46;26.80;67.50
921;DHT22;447;51.332;6.778;2022-08-26T18:33:14;26.80;67.40
921;DHT22;447;51.332;6.778;2022-08-26T18:35:42;26.80;67.50
921;DHT22;447;51.332;6.778;2022-08-26T18:38:11;26.80;67.60